createdAt,value
2018-03-21T00:00:03.654Z,28.65
2018-03-21T00:02:29.854Z,22.02
2018-03-21T00:04:57.548Z,28.90
2018-03-21T00:07:23.743Z,31.48
2018-03-21T00:09:51.173Z,28.75
2018-03-21T00:12:18.768Z,29.65
2018-03-21T00:14:45.719Z,25.37
2018-03-21T00:17:12.156Z,24.67
2018-03-21T00:19:40.489Z,30.17
2018-03-21T00:22:07.854Z,28.45
2018-03-21T00:24:34.188Z,26.58
2018-03-21T00:27:01.735Z,29.35
2018-03-21T00:29:28.683Z,24.85
2018-03-21T00:31:55.702Z,26.55
2018-03-21T00:34:23.046Z,26.90
2018-03-21T00:36:49.464Z,29.25
2018-03-21T00:39:16.181Z,29.33
2018-03-21T00:41:43.122Z,27.60
2018-03-21T00:44:10.533Z,26.27
2018-03-21T00:46:38.527Z,31.00
2018-03-21T00:49:06.224Z,29.23
2018-03-21T00:51:33.809Z,34.92
2018-03-21T00:54:00.215Z,35.97
2018-03-21T00:56:27.259Z,29.73
2018-03-21T00:58:53.544Z,29.55
2018-03-21T01:01:19.919Z,30.20
2018-03-21T01:03:47.898Z,29.30
2018-03-21T01:06:14.127Z,30.12
2018-03-21T01:08:40.358Z,28.15
2018-03-21T01:11:07.920Z,30.05
2018-03-21T01:13:34.688Z,29.65
2018-03-21T01:16:01.256Z,30.12
2018-03-21T01:18:28.824Z,29.15
2018-03-21T01:20:56.115Z,28.70
2018-03-21T01:23:22.342Z,25.48
2018-03-21T01:25:48.583Z,28.00
2018-03-21T01:28:15.531Z,27.33
2018-03-21T01:30:42.309Z,26.62
2018-03-21T01:33:09.511Z,23.33
2018-03-21T01:35:36.053Z,22.90
2018-03-21T01:38:03.222Z,24.23
2018-03-21T01:40:29.433Z,22.58
2018-03-21T01:42:55.654Z,18.58
2018-03-21T01:45:21.856Z,20.60
2018-03-21T01:47:48.729Z,19.55
2018-03-21T01:50:16.118Z,18.37
2018-03-21T01:52:42.909Z,23.00
2018-03-21T01:55:09.651Z,15.98
2018-03-21T01:57:35.854Z,19.80
2018-03-21T02:00:02.085Z,17.73
2018-03-21T02:02:29.428Z,17.00
2018-03-21T02:04:56.945Z,18.17
2018-03-21T02:07:24.436Z,17.50
2018-03-21T02:09:51.375Z,19.77
2018-03-21T02:12:18.895Z,18.08
2018-03-21T02:14:45.123Z,22.00
2018-03-21T02:17:11.647Z,16.52
2018-03-21T02:19:39.231Z,18.23
2018-03-21T02:22:06.647Z,16.30
2018-03-21T02:24:32.847Z,16.10
2018-03-21T02:27:00.050Z,16.33
2018-03-21T02:29:27.702Z,19.15
2018-03-21T02:31:54.788Z,16.10
2018-03-21T02:34:21.035Z,17.45
2018-03-21T02:36:48.074Z,15.38
2018-03-21T02:39:15.275Z,17.62
2018-03-21T02:41:41.895Z,16.15
2018-03-21T02:44:08.142Z,15.35
2018-03-21T02:46:35.010Z,17.00
2018-03-21T02:49:02.224Z,19.05
2018-03-21T02:51:29.041Z,18.73
2018-03-21T02:53:56.807Z,17.42
2018-03-21T02:56:22.995Z,21.98
2018-03-21T02:58:49.209Z,18.52
2018-03-21T03:01:15.718Z,19.23
2018-03-21T03:03:41.927Z,18.33
2018-03-21T03:06:08.792Z,19.25
2018-03-21T03:08:35.289Z,20.00
2018-03-21T03:11:02.315Z,21.17
2018-03-21T03:13:29.766Z,19.00
2018-03-21T03:15:55.962Z,23.12
2018-03-21T03:18:22.673Z,22.08
2018-03-21T03:20:49.182Z,23.30
2018-03-21T03:23:16.744Z,19.65
2018-03-21T03:25:42.932Z,23.40
2018-03-21T03:28:09.721Z,19.85
2018-03-21T03:30:37.761Z,19.83
2018-03-21T03:33:04.031Z,25.90
2018-03-21T03:35:30.797Z,23.60
2018-03-21T03:37:56.999Z,22.33
2018-03-21T03:40:23.637Z,21.98
2018-03-21T03:42:50.986Z,24.23
2018-03-21T03:45:17.892Z,24.60
2018-03-21T03:47:45.529Z,25.90
2018-03-21T03:50:13.378Z,26.90
2018-03-21T03:52:39.844Z,25.70
2018-03-21T03:55:06.027Z,27.52
2018-03-21T03:57:32.214Z,27.02
2018-03-21T03:59:58.861Z,26.50
2018-03-21T04:02:26.737Z,28.33
2018-03-21T04:04:53.815Z,23.83
2018-03-21T04:07:20.363Z,26.42
2018-03-21T04:09:48.541Z,24.33
2018-03-21T04:12:15.560Z,26.37
2018-03-21T04:14:41.871Z,25.83
2018-03-21T04:17:09.015Z,24.67
2018-03-21T04:19:36.057Z,25.30
2018-03-21T04:22:03.043Z,27.02
2018-03-21T04:24:29.263Z,23.25
2018-03-21T04:26:55.715Z,27.27
2018-03-21T04:29:22.402Z,26.00
2018-03-21T04:31:50.150Z,26.52
2018-03-21T04:34:17.326Z,26.65
2018-03-21T04:36:45.113Z,25.10
2018-03-21T04:39:11.330Z,26.95
2018-03-21T04:41:37.559Z,26.70
2018-03-21T04:44:04.409Z,28.87
2018-03-21T04:46:31.467Z,25.30
2018-03-21T04:48:58.417Z,27.75
2018-03-21T04:51:24.647Z,30.17
2018-03-21T04:53:51.450Z,23.15
2018-03-21T04:56:18.386Z,29.98
2018-03-21T04:58:45.621Z,23.67
2018-03-21T05:01:12.582Z,24.65
2018-03-21T05:03:39.933Z,23.05
2018-03-21T05:06:07.645Z,27.15
2018-03-21T05:08:35.262Z,25.62
2018-03-21T05:11:02.207Z,21.55
2018-03-21T05:13:29.384Z,22.10
2018-03-21T05:15:56.436Z,25.55
2018-03-21T05:18:23.879Z,21.65
2018-03-21T05:20:50.258Z,26.33
2018-03-21T05:23:16.471Z,22.95
2018-03-21T05:25:43.190Z,20.15
2018-03-21T05:28:09.504Z,21.58
2018-03-21T05:30:35.746Z,22.08
2018-03-21T05:33:02.066Z,20.67
2018-03-21T05:35:30.377Z,26.30
2018-03-21T05:37:57.366Z,22.17
2018-03-21T05:40:24.410Z,20.95
2018-03-21T05:42:51.339Z,23.50
2018-03-21T05:45:17.550Z,17.98
2018-03-21T05:47:44.157Z,17.70
2018-03-21T05:50:11.482Z,19.20
2018-03-21T05:52:37.807Z,19.48
2018-03-21T05:55:04.970Z,15.63
2018-03-21T05:57:32.011Z,21.05
2018-03-21T05:59:58.661Z,17.90
2018-03-21T06:02:25.751Z,21.50
2018-03-21T06:04:52.519Z,19.58
2018-03-21T06:07:20.670Z,21.75
2018-03-21T06:09:46.900Z,19.33
2018-03-21T06:12:13.330Z,17.65
2018-03-21T06:14:40.536Z,20.37
2018-03-21T06:17:07.630Z,15.18
2018-03-21T06:19:33.883Z,22.10
2018-03-21T06:22:00.843Z,17.42
2018-03-21T06:24:27.129Z,19.25
2018-03-21T06:26:54.041Z,19.60
2018-03-21T06:29:20.440Z,20.37
2018-03-21T06:31:47.059Z,18.40
2018-03-21T06:34:15.080Z,13.43
2018-03-21T06:36:41.834Z,18.25
2018-03-21T06:39:08.440Z,17.45
2018-03-21T06:41:35.528Z,16.05
2018-03-21T06:44:01.714Z,20.50
2018-03-21T06:46:28.464Z,17.85
2018-03-21T06:48:55.656Z,15.77
2018-03-21T06:51:21.851Z,12.63
2018-03-21T06:53:48.443Z,13.13
2018-03-21T06:56:15.475Z,18.70
2018-03-21T06:58:41.775Z,19.20
2018-03-21T07:01:08.050Z,17.15
2018-03-21T07:03:35.069Z,13.52
2018-03-21T07:06:01.824Z,11.00
2018-03-21T07:08:28.542Z,13.80
2018-03-21T07:10:55.890Z,14.02
2018-03-21T07:13:22.964Z,12.25
2018-03-21T07:16:02.031Z,12.27
2018-03-21T07:18:28.365Z,12.77
2018-03-21T07:20:54.704Z,13.02
2018-03-21T07:23:21.076Z,14.43
2018-03-21T07:25:49.253Z,13.05
2018-03-21T07:28:16.367Z,12.50
2018-03-21T07:30:42.571Z,11.82
2018-03-21T07:33:09.361Z,11.48
2018-03-21T07:35:36.266Z,12.55
2018-03-21T07:38:03.432Z,13.95
2018-03-21T07:40:30.051Z,13.73
2018-03-21T07:42:56.780Z,12.02
2018-03-21T07:45:23.370Z,12.18
2018-03-21T07:47:50.458Z,14.43
2018-03-21T07:50:16.733Z,12.15
2018-03-21T07:52:42.991Z,11.40
2018-03-21T07:55:09.210Z,10.13
2018-03-21T07:57:35.434Z,10.20
2018-03-21T08:00:02.436Z,10.10
2018-03-21T08:02:28.624Z,11.50
2018-03-21T08:04:55.613Z,9.65
2018-03-21T08:07:22.449Z,12.10
2018-03-21T08:09:48.640Z,9.90
2018-03-21T08:12:15.593Z,12.48
2018-03-21T08:14:42.556Z,11.12
2018-03-21T08:17:08.753Z,8.75
2018-03-21T08:19:35.741Z,9.25
2018-03-21T08:22:02.079Z,8.40
2018-03-21T08:24:28.896Z,10.73
2018-03-21T08:26:55.118Z,9.30
2018-03-21T08:29:21.953Z,10.50
2018-03-21T08:31:48.920Z,9.30
2018-03-21T08:34:15.266Z,11.15
2018-03-21T08:36:41.599Z,8.80
2018-03-21T08:39:08.714Z,8.15
2018-03-21T08:41:36.964Z,9.32
2018-03-21T08:44:03.504Z,8.85
2018-03-21T08:46:31.248Z,7.60
2018-03-21T08:48:58.272Z,7.47
2018-03-21T08:51:25.304Z,8.35
2018-03-21T08:53:52.150Z,9.52
2018-03-21T08:56:18.868Z,7.95
2018-03-21T08:58:46.637Z,8.35
2018-03-21T09:01:14.591Z,8.57
2018-03-21T09:03:41.610Z,10.68
2018-03-21T09:06:07.803Z,8.43
2018-03-21T09:08:34.765Z,8.27
2018-03-21T09:11:01.760Z,8.65
2018-03-21T09:13:28.354Z,7.70
2018-03-21T09:15:54.851Z,7.55
2018-03-21T09:18:21.571Z,9.57
2018-03-21T09:20:48.075Z,7.70
2018-03-21T09:23:14.811Z,6.82
2018-03-21T09:25:41.315Z,6.65
2018-03-21T09:28:07.552Z,6.62
2018-03-21T09:30:34.784Z,7.93
2018-03-21T09:33:01.090Z,7.00
2018-03-21T09:35:27.712Z,7.37
2018-03-21T09:37:54.513Z,9.13
2018-03-21T09:40:21.109Z,7.35
2018-03-21T09:42:48.546Z,6.93
2018-03-21T09:45:16.725Z,6.37
2018-03-21T09:47:43.751Z,6.65
2018-03-21T09:50:11.146Z,7.40
2018-03-21T09:52:38.800Z,6.95
2018-03-21T09:55:06.404Z,7.30
2018-03-21T09:57:34.197Z,6.20
2018-03-21T10:00:00.383Z,7.87
2018-03-21T10:02:27.906Z,7.22
2018-03-21T10:04:54.136Z,7.28
2018-03-21T10:07:20.584Z,6.20
2018-03-21T10:09:47.331Z,7.57
2018-03-21T10:12:14.123Z,7.82
2018-03-21T10:14:40.498Z,7.60
2018-03-21T10:17:07.512Z,6.50
2018-03-21T10:19:35.125Z,6.40
2018-03-21T10:22:01.868Z,6.28
2018-03-21T10:24:28.611Z,5.90
2018-03-21T10:26:55.102Z,6.30
2018-03-21T10:29:22.584Z,6.35
2018-03-21T10:31:50.637Z,5.72
2018-03-21T10:34:17.435Z,5.45
2018-03-21T10:36:44.402Z,5.65
2018-03-21T10:39:11.914Z,6.72
2018-03-21T10:41:38.420Z,5.47
2018-03-21T10:44:04.957Z,5.45
2018-03-21T10:46:31.172Z,4.97
2018-03-21T10:48:57.651Z,6.03
2018-03-21T10:51:24.731Z,4.82
2018-03-21T10:53:52.410Z,4.68
2018-03-21T10:56:20.210Z,4.93
2018-03-21T10:58:47.873Z,5.20
2018-03-21T11:01:20.744Z,4.82
2018-03-21T11:03:53.529Z,5.30
2018-03-21T11:06:19.730Z,5.35
2018-03-21T11:08:46.078Z,5.87
2018-03-21T11:11:12.673Z,5.80
2018-03-21T11:13:39.660Z,8.10
2018-03-21T11:16:06.569Z,9.15
2018-03-21T11:18:33.757Z,9.32
2018-03-21T11:21:00.472Z,10.00
2018-03-21T11:23:27.509Z,8.70
2018-03-21T11:25:55.302Z,9.05
2018-03-21T11:28:21.508Z,9.52
2018-03-21T11:30:49.217Z,8.95
2018-03-21T11:33:16.205Z,9.90
2018-03-21T11:35:43.163Z,7.43
2018-03-21T11:38:10.109Z,9.18
2018-03-21T11:40:36.817Z,8.10
2018-03-21T11:43:03.854Z,10.95
2018-03-21T11:45:30.156Z,8.05
2018-03-21T11:47:56.385Z,8.68
2018-03-21T11:50:23.209Z,8.45
2018-03-21T11:52:50.169Z,7.72
2018-03-21T11:55:17.018Z,10.93
2018-03-21T11:57:43.206Z,8.80
2018-03-21T12:00:10.377Z,7.15
2018-03-21T12:02:37.171Z,9.93
2018-03-21T12:05:03.914Z,9.63
2018-03-21T12:07:31.651Z,8.25
2018-03-21T12:09:58.365Z,7.75
2018-03-21T12:12:24.828Z,8.35
2018-03-21T12:14:51.822Z,9.43
2018-03-21T12:17:18.341Z,6.43
2018-03-21T12:19:46.301Z,7.47
2018-03-21T12:22:13.518Z,6.30
2018-03-21T12:24:41.498Z,5.95
2018-03-21T12:27:08.289Z,7.95
2018-03-21T12:29:34.477Z,8.85
2018-03-21T12:32:01.552Z,6.45
2018-03-21T12:34:27.846Z,5.18
2018-03-21T12:36:54.042Z,4.93
2018-03-21T12:39:20.370Z,5.43
2018-03-21T12:41:47.361Z,6.82
2018-03-21T12:44:14.315Z,5.97
2018-03-21T12:46:42.403Z,6.87
2018-03-21T12:49:09.577Z,5.12
2018-03-21T12:51:36.032Z,7.32
2018-03-21T12:54:03.611Z,5.72
2018-03-21T12:56:30.585Z,6.03
2018-03-21T12:58:57.734Z,6.87
2018-03-21T13:01:24.842Z,5.78
2018-03-21T13:03:52.659Z,5.93
2018-03-21T13:06:20.339Z,5.07
2018-03-21T13:08:46.544Z,6.18
2018-03-21T13:11:12.857Z,5.05
2018-03-21T13:13:40.496Z,8.77
2018-03-21T13:16:07.751Z,4.80
2018-03-21T13:18:34.363Z,5.22
2018-03-21T13:21:01.363Z,5.20
2018-03-21T13:23:28.300Z,5.70
2018-03-21T13:25:55.282Z,7.50
2018-03-21T13:28:21.507Z,4.78
2018-03-21T13:30:48.164Z,4.32
2018-03-21T13:33:15.461Z,5.25
2018-03-21T13:35:42.383Z,6.12
2018-03-21T13:38:09.110Z,7.37
2018-03-21T13:40:35.498Z,4.78
2018-03-21T13:43:02.583Z,5.45
2018-03-21T13:45:28.860Z,5.68
2018-03-21T13:47:56.527Z,4.95
2018-03-21T13:50:24.190Z,4.70
2018-03-21T13:52:50.695Z,4.60
2018-03-21T13:55:18.009Z,4.80
2018-03-21T13:57:44.353Z,4.50
2018-03-21T14:00:11.064Z,4.50
2018-03-21T14:02:37.267Z,4.60
2018-03-21T14:05:04.247Z,3.80
2018-03-21T14:07:31.791Z,6.10
2018-03-21T14:09:58.097Z,4.20
2018-03-21T14:12:25.204Z,4.00
2018-03-21T14:14:51.422Z,4.05
2018-03-21T14:17:17.932Z,4.10
2018-03-21T14:19:44.338Z,4.12
2018-03-21T14:22:11.355Z,4.00
2018-03-21T14:24:37.723Z,4.03
2018-03-21T14:27:04.695Z,3.50
2018-03-21T14:29:31.589Z,3.90
2018-03-21T14:31:59.564Z,3.95
2018-03-21T14:34:25.746Z,3.30
2018-03-21T14:36:51.954Z,4.00
2018-03-21T14:39:18.395Z,3.10
2018-03-21T14:41:45.748Z,3.62
2018-03-21T14:44:12.858Z,3.17
2018-03-21T14:46:39.840Z,3.62
2018-03-21T14:49:06.184Z,3.70
2018-03-21T14:51:32.393Z,3.50
2018-03-21T14:53:58.961Z,3.30
2018-03-21T14:56:26.078Z,5.12
2018-03-21T14:58:52.952Z,4.05
2018-03-21T15:01:19.154Z,2.65
2018-03-21T15:03:45.641Z,3.25
2018-03-21T15:06:11.911Z,5.60
2018-03-21T15:08:38.094Z,3.97
2018-03-21T15:11:05.310Z,3.20
2018-03-21T15:13:31.652Z,3.53
2018-03-21T15:15:58.373Z,3.12
2018-03-21T15:18:24.598Z,3.35
2018-03-21T15:20:50.798Z,3.30
2018-03-21T15:23:17.560Z,4.82
2018-03-21T15:25:44.109Z,3.00
2018-03-21T15:28:11.124Z,2.75
2018-03-21T15:30:37.402Z,2.83
2018-03-21T15:33:04.193Z,3.65
2018-03-21T15:35:31.685Z,2.53
2018-03-21T15:37:58.458Z,3.75
2018-03-21T15:40:25.365Z,3.37
2018-03-21T15:42:51.600Z,2.50
2018-03-21T15:45:18.452Z,3.35
2018-03-21T15:47:44.643Z,3.20
2018-03-21T15:50:11.795Z,3.08
2018-03-21T15:52:38.936Z,2.70
2018-03-21T15:55:05.988Z,2.80
2018-03-21T15:57:32.267Z,3.10
2018-03-21T15:59:59.023Z,2.85
2018-03-21T16:02:26.575Z,3.45
2018-03-21T16:04:53.085Z,3.10
2018-03-21T16:07:20.326Z,3.50
2018-03-21T16:09:47.369Z,2.90
2018-03-21T16:12:13.610Z,3.60
2018-03-21T16:14:40.439Z,3.83
2018-03-21T16:17:08.437Z,4.93
2018-03-21T16:19:35.543Z,2.40
2018-03-21T16:22:01.801Z,2.30
2018-03-21T16:24:28.008Z,2.67
2018-03-21T16:26:55.271Z,2.70
2018-03-21T16:29:21.492Z,3.10
2018-03-21T16:31:48.423Z,2.78
2018-03-21T16:34:14.831Z,3.03
2018-03-21T16:36:41.152Z,2.90
2018-03-21T16:39:08.698Z,5.28
2018-03-21T16:41:35.724Z,3.95
2018-03-21T16:44:02.046Z,3.50
2018-03-21T16:46:28.326Z,4.22
2018-03-21T16:48:55.316Z,6.82
2018-03-21T16:51:21.937Z,5.30
2018-03-21T16:53:49.466Z,9.73
2018-03-21T16:56:16.530Z,6.78
2018-03-21T16:58:43.265Z,7.37
2018-03-21T17:01:10.033Z,8.02
2018-03-21T17:03:36.286Z,4.70
2018-03-21T17:06:03.166Z,4.95
2018-03-21T17:08:31.134Z,5.62
2018-03-21T17:10:58.200Z,4.37
2018-03-21T17:13:25.067Z,7.35
2018-03-21T17:15:51.275Z,5.30
2018-03-21T17:18:17.519Z,10.98
2018-03-21T17:20:44.395Z,9.30
2018-03-21T17:23:11.235Z,9.07
2018-03-21T17:25:37.490Z,7.60
2018-03-21T17:28:04.750Z,6.82
2018-03-21T17:30:30.992Z,7.90
2018-03-21T17:32:57.351Z,11.90
2018-03-21T17:35:23.665Z,22.33
2018-03-21T17:37:50.122Z,20.20
2018-03-21T17:40:16.774Z,8.55
2018-03-21T17:42:43.784Z,13.07
2018-03-21T17:45:10.704Z,7.87
2018-03-21T17:47:37.975Z,8.73
2018-03-21T17:50:04.999Z,11.60
2018-03-21T17:52:31.890Z,11.35
2018-03-21T17:54:58.196Z,11.93
2018-03-21T17:57:24.927Z,8.10
2018-03-21T17:59:52.213Z,10.25
2018-03-21T18:02:19.267Z,9.23
2018-03-21T18:04:45.483Z,7.35
2018-03-21T18:07:12.218Z,7.90
2018-03-21T18:09:38.963Z,6.35
2018-03-21T18:12:05.766Z,7.20
2018-03-21T18:14:32.520Z,9.43
2018-03-21T18:16:58.754Z,9.48
2018-03-21T18:19:24.986Z,7.62
2018-03-21T18:21:51.191Z,7.82
2018-03-21T18:24:17.641Z,10.75
2018-03-21T18:26:44.638Z,10.27
2018-03-21T18:29:10.893Z,10.20
2018-03-21T18:31:37.134Z,12.20
2018-03-21T18:34:04.006Z,11.98
2018-03-21T18:36:30.827Z,15.93
2018-03-21T18:38:57.885Z,20.85
2018-03-21T18:41:24.756Z,17.75
2018-03-21T18:43:51.004Z,24.42
2018-03-21T18:46:17.984Z,19.85
2018-03-21T18:48:44.782Z,19.25
2018-03-21T18:51:11.851Z,21.40
2018-03-21T18:53:38.214Z,14.43
2018-03-21T18:56:05.108Z,15.35
2018-03-21T18:58:32.200Z,16.77
2018-03-21T19:00:59.330Z,18.80
2018-03-21T19:03:26.398Z,14.98
2018-03-21T19:05:52.687Z,16.23
2018-03-21T19:08:20.343Z,20.30
2018-03-21T19:10:47.865Z,15.82
2018-03-21T19:13:20.145Z,15.65
2018-03-21T19:15:40.358Z,14.95
2018-03-21T19:18:07.378Z,20.30
2018-03-21T19:20:33.636Z,15.70
2018-03-21T19:23:00.624Z,13.77
2018-03-21T19:25:26.894Z,13.68
2018-03-21T19:27:53.728Z,20.37
2018-03-21T19:30:20.647Z,13.95
2018-03-21T19:32:47.512Z,15.48
2018-03-21T19:35:14.148Z,17.02
2018-03-21T19:37:40.421Z,16.48
2018-03-21T19:40:07.660Z,17.65
2018-03-21T19:42:35.685Z,16.20
2018-03-21T19:45:01.964Z,15.23
2018-03-21T19:47:29.113Z,13.93
2018-03-21T19:49:56.720Z,23.65
2018-03-21T19:52:23.035Z,19.62
2018-03-21T19:54:49.262Z,15.98
2018-03-21T19:57:16.678Z,16.05
2018-03-21T19:59:44.160Z,16.20
2018-03-21T20:02:11.746Z,16.62
2018-03-21T20:04:38.873Z,17.62
2018-03-21T20:07:05.260Z,19.52
2018-03-21T20:09:31.639Z,17.50
2018-03-21T20:11:58.254Z,18.15
2018-03-21T20:14:25.323Z,18.60
2018-03-21T20:16:51.908Z,17.12
2018-03-21T20:19:19.929Z,16.87
2018-03-21T20:21:46.685Z,17.30
2018-03-21T20:24:12.989Z,15.60
2018-03-21T20:26:39.300Z,19.27
2018-03-21T20:29:06.592Z,18.33
2018-03-21T20:31:33.346Z,17.05
2018-03-21T20:34:00.904Z,12.30
2018-03-21T20:36:28.678Z,16.92
2018-03-21T20:38:54.936Z,19.42
2018-03-21T20:41:21.146Z,16.15
2018-03-21T20:43:48.415Z,15.35
2018-03-21T20:46:15.852Z,19.08
2018-03-21T20:48:43.244Z,14.85
2018-03-21T20:51:10.652Z,15.07
2018-03-21T20:53:37.320Z,18.87
2018-03-21T20:56:04.537Z,14.98
2018-03-21T20:58:32.226Z,13.82
2018-03-21T21:00:59.196Z,15.68
2018-03-21T21:03:27.099Z,15.52
2018-03-21T21:05:54.125Z,14.30
2018-03-21T21:08:20.751Z,12.43
2018-03-21T21:10:47.098Z,18.75
2018-03-21T21:13:14.772Z,11.95
2018-03-21T21:15:41.402Z,12.90
2018-03-21T21:18:08.654Z,15.52
2018-03-21T21:20:35.736Z,15.88
2018-03-21T21:23:02.316Z,28.85
2018-03-21T21:25:29.240Z,19.62
2018-03-21T21:27:55.778Z,15.50
2018-03-21T21:30:23.001Z,13.62
2018-03-21T21:32:50.070Z,8.43
2018-03-21T21:35:17.676Z,9.15
2018-03-21T21:37:44.475Z,11.05
2018-03-21T21:40:10.919Z,12.48
2018-03-21T21:42:38.585Z,12.05
2018-03-21T21:45:05.140Z,11.55
2018-03-21T21:47:31.920Z,12.45
2018-03-21T21:49:58.885Z,10.00
2018-03-21T21:52:26.349Z,8.60
2018-03-21T21:54:53.934Z,10.05
2018-03-21T21:57:20.770Z,11.02
2018-03-21T21:59:48.325Z,13.02
2018-03-21T22:02:14.631Z,14.10
2018-03-21T22:04:40.992Z,9.93
2018-03-21T22:07:07.223Z,12.25
2018-03-21T22:09:34.076Z,10.15
2018-03-21T22:12:00.835Z,11.35
2018-03-21T22:14:27.858Z,10.10
2018-03-21T22:16:54.171Z,12.55
2018-03-21T22:19:21.038Z,11.30
2018-03-21T22:21:47.321Z,10.20
2018-03-21T22:24:15.128Z,12.05
2018-03-21T22:26:42.791Z,10.25
2018-03-21T22:29:09.623Z,10.80
2018-03-21T22:31:35.837Z,10.05
2018-03-21T22:34:03.313Z,11.70
2018-03-21T22:36:30.565Z,10.65
2018-03-21T22:38:57.323Z,10.60
2018-03-21T22:41:23.841Z,10.73
2018-03-21T22:43:52.018Z,10.07
2018-03-21T22:46:19.060Z,10.07
2018-03-21T22:48:45.347Z,9.02
2018-03-21T22:51:12.211Z,12.40
2018-03-21T22:53:39.635Z,12.93
2018-03-21T22:56:06.518Z,13.25
2018-03-21T22:58:32.759Z,10.52
2018-03-21T23:00:59.596Z,10.23
2018-03-21T23:03:26.041Z,14.38
2018-03-21T23:05:52.757Z,11.40
2018-03-21T23:08:19.313Z,11.25
2018-03-21T23:10:46.844Z,18.42
2018-03-21T23:13:13.821Z,13.62
2018-03-21T23:15:40.175Z,12.85
2018-03-21T23:18:07.418Z,12.43
2018-03-21T23:20:33.858Z,14.52
2018-03-21T23:23:01.480Z,14.35
2018-03-21T23:25:28.244Z,14.50
2018-03-21T23:27:55.008Z,16.00
2018-03-21T23:30:22.447Z,18.23
2018-03-21T23:32:51.001Z,13.90
2018-03-21T23:35:17.579Z,13.68
2018-03-21T23:37:44.570Z,13.10
2018-03-21T23:40:12.670Z,13.13
2018-03-21T23:42:39.297Z,10.80
2018-03-21T23:45:05.512Z,12.60
2018-03-21T23:47:32.374Z,12.98
2018-03-21T23:49:59.515Z,8.80
2018-03-21T23:52:26.585Z,23.02
2018-03-21T23:54:52.798Z,25.30
2018-03-21T23:57:19.616Z,17.75
2018-03-21T23:59:47.404Z,12.30
